sensor_id;sensor_type;location;lat;lon;timestamp;pressure;altitude;pressure_sealevel;temperature;humidity
12757;BME280;31601;48.042;12.240;2023-04-25T00:00:45;95604.00;;;7.68;67.83
12757;BME280;31601;48.042;12.240;2023-04-25T00:03:12;95598.16;;;7.66;68.04
12757;BME280;31601;48.042;12.240;2023-04-25T00:05:38;95601.13;;;7.63;67.96
12757;BME280;31601;48.042;12.240;2023-04-25T00:08:06;95608.22;;;7.55;68.04
12757;BME280;31601;48.042;12.240;2023-04-25T00:10:33;95610.03;;;7.54;67.78
12757;BME280;31601;48.042;12.240;2023-04-25T00:12:59;95597.44;;;7.58;68.26
12757;BME280;31601;48.042;12.240;2023-04-25T00:15:27;95602.09;;;7.62;67.91
12757;BME280;31601;48.042;12.240;2023-04-25T00:17:55;95598.78;;;7.53;68.33
12757;BME280;31601;48.042;12.240;2023-04-25T00:20:22;95598.03;;;7.60;68.23
12757;BME280;31601;48.042;12.240;2023-04-25T00:22:48;95601.91;;;7.49;68.06
12757;BME280;31601;48.042;12.240;2023-04-25T00:25:16;95598.94;;;7.22;68.63
12757;BME280;31601;48.042;12.240;2023-04-25T00:27:42;95597.97;;;7.23;68.54
12757;BME280;31601;48.042;12.240;2023-04-25T00:30:10;95598.84;;;7.30;67.94
12757;BME280;31601;48.042;12.240;2023-04-25T00:32:36;95605.06;;;7.29;68.44
12757;BME280;31601;48.042;12.240;2023-04-25T00:35:03;95598.84;;;7.30;68.46
12757;BME280;31601;48.042;12.240;2023-04-25T00:37:31;95588.94;;;7.26;68.69
12757;BME280;31601;48.042;12.240;2023-04-25T00:39:58;95589.47;;;7.21;68.91
12757;BME280;31601;48.042;12.240;2023-04-25T00:42:26;95583.72;;;7.11;68.42
12757;BME280;31601;48.042;12.240;2023-04-25T00:44:53;95576.09;;;7.09;68.75
12757;BME280;31601;48.042;12.240;2023-04-25T00:47:19;95584.19;;;7.29;68.50
12757;BME280;31601;48.042;12.240;2023-04-25T00:49:46;95577.53;;;7.42;68.37
12757;BME280;31601;48.042;12.240;2023-04-25T00:52:12;95564.13;;;7.45;68.51
12757;BME280;31601;48.042;12.240;2023-04-25T00:54:39;95561.25;;;7.40;68.58
12757;BME280;31601;48.042;12.240;2023-04-25T00:57:06;95565.66;;;7.54;68.57
12757;BME280;31601;48.042;12.240;2023-04-25T00:59:34;95566.81;;;7.66;68.61
12757;BME280;31601;48.042;12.240;2023-04-25T01:02:04;95576.00;;;7.77;68.16
12757;BME280;31601;48.042;12.240;2023-04-25T01:04:30;95575.94;;;7.92;67.74
12757;BME280;31601;48.042;12.240;2023-04-25T01:06:57;95571.56;;;7.93;67.88
12757;BME280;31601;48.042;12.240;2023-04-25T01:09:24;95568.41;;;7.97;68.27
12757;BME280;31601;48.042;12.240;2023-04-25T01:11:50;95581.00;;;7.94;67.96
12757;BME280;31601;48.042;12.240;2023-04-25T01:14:17;95582.47;;;7.81;68.74
12757;BME280;31601;48.042;12.240;2023-04-25T01:16:45;95584.19;;;7.74;69.00
12757;BME280;31601;48.042;12.240;2023-04-25T01:19:16;95578.97;;;7.74;68.78
12757;BME280;31601;48.042;12.240;2023-04-25T01:21:44;95571.41;;;7.79;68.55
12757;BME280;31601;48.042;12.240;2023-04-25T01:24:11;95567.16;;;7.78;68.75
12757;BME280;31601;48.042;12.240;2023-04-25T01:26:39;95569.69;;;7.86;68.23
12757;BME280;31601;48.042;12.240;2023-04-25T01:29:09;95566.97;;;7.80;68.52
12757;BME280;31601;48.042;12.240;2023-04-25T01:31:36;95569.03;;;7.84;68.46
12757;BME280;31601;48.042;12.240;2023-04-25T01:34:03;95561.28;;;7.91;68.57
12757;BME280;31601;48.042;12.240;2023-04-25T01:36:29;95566.84;;;8.03;68.39
12757;BME280;31601;48.042;12.240;2023-04-25T01:38:57;95564.31;;;8.10;68.29
12757;BME280;31601;48.042;12.240;2023-04-25T01:41:24;95551.25;;;8.10;68.21
12757;BME280;31601;48.042;12.240;2023-04-25T01:43:51;95567.78;;;8.17;68.31
12757;BME280;31601;48.042;12.240;2023-04-25T01:46:17;95558.16;;;8.17;68.28
12757;BME280;31601;48.042;12.240;2023-04-25T01:48:44;95556.97;;;8.20;68.42
12757;BME280;31601;48.042;12.240;2023-04-25T01:51:11;95573.38;;;8.14;67.87
12757;BME280;31601;48.042;12.240;2023-04-25T01:53:38;95561.34;;;8.13;68.09
12757;BME280;31601;48.042;12.240;2023-04-25T01:56:06;95557.28;;;8.10;68.16
12757;BME280;31601;48.042;12.240;2023-04-25T01:58:33;95557.47;;;8.09;68.21
12757;BME280;31601;48.042;12.240;2023-04-25T02:00:59;95552.59;;;8.05;68.00
12757;BME280;31601;48.042;12.240;2023-04-25T02:03:26;95554.59;;;8.03;68.39
12757;BME280;31601;48.042;12.240;2023-04-25T02:05:52;95557.75;;;7.99;68.33
12757;BME280;31601;48.042;12.240;2023-04-25T02:08:19;95551.47;;;7.93;68.71
12757;BME280;31601;48.042;12.240;2023-04-25T02:10:45;95550.19;;;7.89;68.19
12757;BME280;31601;48.042;12.240;2023-04-25T02:13:13;95554.38;;;7.83;68.49
12757;BME280;31601;48.042;12.240;2023-04-25T02:15:39;95551.94;;;7.82;68.86
12757;BME280;31601;48.042;12.240;2023-04-25T02:18:06;95554.38;;;7.68;69.12
12757;BME280;31601;48.042;12.240;2023-04-25T02:20:33;95556.38;;;7.66;68.95
12757;BME280;31601;48.042;12.240;2023-04-25T02:22:59;95551.53;;;7.63;68.88
12757;BME280;31601;48.042;12.240;2023-04-25T02:25:26;95544.78;;;7.54;69.11
12757;BME280;31601;48.042;12.240;2023-04-25T02:27:52;95546.13;;;7.50;69.09
12757;BME280;31601;48.042;12.240;2023-04-25T02:30:20;95545.50;;;7.48;69.26
12757;BME280;31601;48.042;12.240;2023-04-25T02:32:46;95545.22;;;7.43;68.99
12757;BME280;31601;48.042;12.240;2023-04-25T02:35:13;95546.59;;;7.39;68.93
12757;BME280;31601;48.042;12.240;2023-04-25T02:37:40;95549.09;;;7.32;69.09
12757;BME280;31601;48.042;12.240;2023-04-25T02:40:07;95540.38;;;7.25;69.12
12757;BME280;31601;48.042;12.240;2023-04-25T02:42:34;95538.03;;;7.15;69.11
12757;BME280;31601;48.042;12.240;2023-04-25T02:45:01;95544.78;;;7.09;69.44
12757;BME280;31601;48.042;12.240;2023-04-25T02:47:28;95534.88;;;7.05;69.23
12757;BME280;31601;48.042;12.240;2023-04-25T02:49:55;95541.00;;;6.97;69.78
12757;BME280;31601;48.042;12.240;2023-04-25T02:52:21;95542.06;;;7.03;69.38
12757;BME280;31601;48.042;12.240;2023-04-25T02:54:48;95534.94;;;6.96;69.71
12757;BME280;31601;48.042;12.240;2023-04-25T02:57:14;95536.84;;;7.03;69.73
12757;BME280;31601;48.042;12.240;2023-04-25T02:59:41;95529.94;;;7.10;69.75
12757;BME280;31601;48.042;12.240;2023-04-25T03:02:07;95537.41;;;7.13;69.50
12757;BME280;31601;48.042;12.240;2023-04-25T03:04:35;95532.44;;;7.18;69.73
12757;BME280;31601;48.042;12.240;2023-04-25T03:07:01;95528.84;;;7.19;69.17
12757;BME280;31601;48.042;12.240;2023-04-25T03:09:28;95522.00;;;7.18;69.24
12757;BME280;31601;48.042;12.240;2023-04-25T03:11:55;95524.00;;;7.16;69.74
12757;BME280;31601;48.042;12.240;2023-04-25T03:14:21;95519.03;;;7.21;69.59
12757;BME280;31601;48.042;12.240;2023-04-25T03:16:48;95522.13;;;7.25;69.79
12757;BME280;31601;48.042;12.240;2023-04-25T03:19:14;95524.19;;;7.29;69.25
12757;BME280;31601;48.042;12.240;2023-04-25T03:21:43;95531.00;;;7.30;69.48
12757;BME280;31601;48.042;12.240;2023-04-25T03:24:10;95524.56;;;7.26;69.40
12757;BME280;31601;48.042;12.240;2023-04-25T03:26:37;95517.53;;;7.27;69.32
12757;BME280;31601;48.042;12.240;2023-04-25T03:29:03;95514.28;;;7.25;69.56
12757;BME280;31601;48.042;12.240;2023-04-25T03:31:30;95517.69;;;7.25;69.74
12757;BME280;31601;48.042;12.240;2023-04-25T03:33:56;95514.72;;;7.28;69.97
12757;BME280;31601;48.042;12.240;2023-04-25T03:36:23;95523.47;;;7.35;69.97
12757;BME280;31601;48.042;12.240;2023-04-25T03:38:51;95526.25;;;7.34;70.06
12757;BME280;31601;48.042;12.240;2023-04-25T03:41:17;95525.34;;;7.42;70.01
12757;BME280;31601;48.042;12.240;2023-04-25T03:43:44;95524.25;;;7.51;70.15
12757;BME280;31601;48.042;12.240;2023-04-25T03:46:10;95525.97;;;7.59;69.50
12757;BME280;31601;48.042;12.240;2023-04-25T03:48:36;95517.13;;;7.60;69.80
12757;BME280;31601;48.042;12.240;2023-04-25T03:51:03;95513.34;;;7.62;69.62
12757;BME280;31601;48.042;12.240;2023-04-25T03:53:29;95515.53;;;7.59;69.81
12757;BME280;31601;48.042;12.240;2023-04-25T03:55:57;95522.81;;;7.63;69.86
12757;BME280;31601;48.042;12.240;2023-04-25T03:58:24;95527.00;;;7.64;70.12
12757;BME280;31601;48.042;12.240;2023-04-25T04:00:50;95526.56;;;7.76;69.81
12757;BME280;31601;48.042;12.240;2023-04-25T04:03:16;95534.75;;;7.73;70.10
12757;BME280;31601;48.042;12.240;2023-04-25T04:05:43;95537.00;;;7.76;69.96
12757;BME280;31601;48.042;12.240;2023-04-25T04:08:10;95551.41;;;7.71;69.53
12757;BME280;31601;48.042;12.240;2023-04-25T04:10:36;95553.53;;;7.83;69.57
12757;BME280;31601;48.042;12.240;2023-04-25T04:13:04;95561.13;;;7.78;69.56
12757;BME280;31601;48.042;12.240;2023-04-25T04:15:30;95572.19;;;7.80;69.52
12757;BME280;31601;48.042;12.240;2023-04-25T04:20:39;95584.88;;;7.83;69.68
12757;BME280;31601;48.042;12.240;2023-04-25T04:23:08;95580.13;;;7.57;70.06
12757;BME280;31601;48.042;12.240;2023-04-25T04:25:36;95575.81;;;7.49;69.84
12757;BME280;31601;48.042;12.240;2023-04-25T04:28:04;95560.03;;;7.72;67.77
12757;BME280;31601;48.042;12.240;2023-04-25T04:30:31;95561.50;;;7.75;67.64
12757;BME280;31601;48.042;12.240;2023-04-25T04:33:01;95556.09;;;8.13;66.78
12757;BME280;31601;48.042;12.240;2023-04-25T04:35:28;95559.38;;;8.00;66.66
12757;BME280;31601;48.042;12.240;2023-04-25T04:37:55;95545.03;;;8.32;65.78
12757;BME280;31601;48.042;12.240;2023-04-25T04:40:21;95539.97;;;8.46;66.23
12757;BME280;31601;48.042;12.240;2023-04-25T04:42:48;95524.78;;;8.56;66.39
12757;BME280;31601;48.042;12.240;2023-04-25T04:45:16;95522.41;;;8.61;66.63
12757;BME280;31601;48.042;12.240;2023-04-25T04:47:43;95520.03;;;8.66;66.29
12757;BME280;31601;48.042;12.240;2023-04-25T04:50:11;95517.09;;;8.76;66.25
12757;BME280;31601;48.042;12.240;2023-04-25T04:52:38;95510.28;;;8.82;66.10
12757;BME280;31601;48.042;12.240;2023-04-25T04:55:05;95512.19;;;8.94;65.67
12757;BME280;31601;48.042;12.240;2023-04-25T04:57:33;95513.69;;;9.10;65.95
12757;BME280;31601;48.042;12.240;2023-04-25T05:00:00;95512.94;;;9.17;65.14
12757;BME280;31601;48.042;12.240;2023-04-25T05:02:29;95518.25;;;9.30;65.24
12757;BME280;31601;48.042;12.240;2023-04-25T05:04:56;95519.94;;;9.44;64.95
12757;BME280;31601;48.042;12.240;2023-04-25T05:07:22;95523.16;;;9.46;64.78
12757;BME280;31601;48.042;12.240;2023-04-25T05:09:49;95520.81;;;9.58;64.42
12757;BME280;31601;48.042;12.240;2023-04-25T05:12:15;95531.94;;;9.74;64.12
12757;BME280;31601;48.042;12.240;2023-04-25T05:14:41;95530.97;;;9.88;63.48
12757;BME280;31601;48.042;12.240;2023-04-25T05:17:08;95526.44;;;10.24;63.46
12757;BME280;31601;48.042;12.240;2023-04-25T05:19:35;95531.75;;;10.37;62.48
12757;BME280;31601;48.042;12.240;2023-04-25T05:22:02;95537.00;;;10.64;62.15
12757;BME280;31601;48.042;12.240;2023-04-25T05:24:29;95543.25;;;10.63;61.41
12757;BME280;31601;48.042;12.240;2023-04-25T05:26:55;95546.09;;;10.68;61.02
12757;BME280;31601;48.042;12.240;2023-04-25T05:29:22;95549.94;;;10.65;60.65
12757;BME280;31601;48.042;12.240;2023-04-25T05:31:48;95556.91;;;10.18;61.04
12757;BME280;31601;48.042;12.240;2023-04-25T05:34:14;95544.63;;;10.32;59.96
12757;BME280;31601;48.042;12.240;2023-04-25T05:36:43;95531.34;;;10.47;60.46
12757;BME280;31601;48.042;12.240;2023-04-25T05:39:13;95520.84;;;10.47;60.04
12757;BME280;31601;48.042;12.240;2023-04-25T05:41:39;95510.50;;;10.25;60.42
12757;BME280;31601;48.042;12.240;2023-04-25T05:44:06;95515.63;;;10.40;60.12
12757;BME280;31601;48.042;12.240;2023-04-25T05:46:32;95518.03;;;10.35;60.12
12757;BME280;31601;48.042;12.240;2023-04-25T05:48:59;95515.63;;;10.53;60.16
12757;BME280;31601;48.042;12.240;2023-04-25T05:51:25;95505.72;;;10.69;60.42
12757;BME280;31601;48.042;12.240;2023-04-25T05:53:54;95510.97;;;10.82;60.34
12757;BME280;31601;48.042;12.240;2023-04-25T05:56:20;95507.91;;;11.12;60.08
12757;BME280;31601;48.042;12.240;2023-04-25T05:58:47;95507.47;;;11.28;60.13
12757;BME280;31601;48.042;12.240;2023-04-25T06:01:13;95516.19;;;11.22;59.54
12757;BME280;31601;48.042;12.240;2023-04-25T06:03:40;95524.84;;;11.23;59.68
12757;BME280;31601;48.042;12.240;2023-04-25T06:06:08;95523.22;;;11.42;59.23
12757;BME280;31601;48.042;12.240;2023-04-25T06:08:34;95524.59;;;11.51;58.77
12757;BME280;31601;48.042;12.240;2023-04-25T06:11:02;95519.16;;;11.53;58.58
12757;BME280;31601;48.042;12.240;2023-04-25T06:13:28;95530.44;;;11.53;58.51
12757;BME280;31601;48.042;12.240;2023-04-25T06:15:55;95518.13;;;11.47;59.13
12757;BME280;31601;48.042;12.240;2023-04-25T06:18:21;95526.53;;;11.76;58.55
12757;BME280;31601;48.042;12.240;2023-04-25T06:20:47;95527.03;;;12.05;58.01
12757;BME280;31601;48.042;12.240;2023-04-25T06:23:14;95518.81;;;12.26;57.38
12757;BME280;31601;48.042;12.240;2023-04-25T06:25:40;95509.44;;;12.37;56.18
12757;BME280;31601;48.042;12.240;2023-04-25T06:28:08;95514.50;;;12.39;55.54
12757;BME280;31601;48.042;12.240;2023-04-25T06:30:34;95513.31;;;12.34;55.47
12757;BME280;31601;48.042;12.240;2023-04-25T06:33:01;95509.91;;;12.27;55.35
12757;BME280;31601;48.042;12.240;2023-04-25T06:35:27;95505.56;;;12.14;55.51
12757;BME280;31601;48.042;12.240;2023-04-25T06:37:54;95519.59;;;11.95;55.40
12757;BME280;31601;48.042;12.240;2023-04-25T06:40:20;95511.31;;;11.91;55.48
12757;BME280;31601;48.042;12.240;2023-04-25T06:42:46;95514.09;;;12.03;55.72
12757;BME280;31601;48.042;12.240;2023-04-25T06:45:14;95500.88;;;12.16;55.94
12757;BME280;31601;48.042;12.240;2023-04-25T06:47:41;95499.41;;;12.27;55.89
12757;BME280;31601;48.042;12.240;2023-04-25T06:50:08;95501.84;;;12.54;55.42
12757;BME280;31601;48.042;12.240;2023-04-25T06:52:36;95504.91;;;13.01;54.88
12757;BME280;31601;48.042;12.240;2023-04-25T06:55:02;95504.53;;;12.98;54.91
12757;BME280;31601;48.042;12.240;2023-04-25T06:57:30;95518.63;;;13.29;53.82
12757;BME280;31601;48.042;12.240;2023-04-25T06:59:57;95498.91;;;13.13;53.83
12757;BME280;31601;48.042;12.240;2023-04-25T07:02:24;95509.44;;;13.13;53.52
12757;BME280;31601;48.042;12.240;2023-04-25T07:04:51;95502.84;;;13.03;53.31
12757;BME280;31601;48.042;12.240;2023-04-25T07:07:17;95504.13;;;13.01;53.75
12757;BME280;31601;48.042;12.240;2023-04-25T07:09:44;95500.69;;;13.19;52.59
12757;BME280;31601;48.042;12.240;2023-04-25T07:12:10;95503.09;;;13.64;53.01
12757;BME280;31601;48.042;12.240;2023-04-25T07:14:36;95502.94;;;14.38;51.78
12757;BME280;31601;48.042;12.240;2023-04-25T07:17:03;95506.16;;;14.40;50.21
12757;BME280;31601;48.042;12.240;2023-04-25T07:19:33;95497.31;;;15.00;49.65
12757;BME280;31601;48.042;12.240;2023-04-25T07:21:59;95490.75;;;14.91;49.34
12757;BME280;31601;48.042;12.240;2023-04-25T07:24:26;95487.31;;;15.14;49.23
12757;BME280;31601;48.042;12.240;2023-04-25T07:26:52;95483.75;;;15.20;48.11
12757;BME280;31601;48.042;12.240;2023-04-25T07:29:19;95478.13;;;15.17;47.73
12757;BME280;31601;48.042;12.240;2023-04-25T07:31:45;95469.72;;;14.96;47.16
12757;BME280;31601;48.042;12.240;2023-04-25T07:34:11;95471.88;;;14.52;47.54
12757;BME280;31601;48.042;12.240;2023-04-25T07:36:39;95493.28;;;14.02;49.46
12757;BME280;31601;48.042;12.240;2023-04-25T07:39:06;95488.16;;;13.39;50.98
12757;BME280;31601;48.042;12.240;2023-04-25T07:41:34;95503.31;;;13.19;51.96
12757;BME280;31601;48.042;12.240;2023-04-25T07:44:00;95513.97;;;12.23;54.04
12757;BME280;31601;48.042;12.240;2023-04-25T07:46:27;95519.97;;;11.40;55.96
12757;BME280;31601;48.042;12.240;2023-04-25T07:48:53;95522.47;;;10.54;57.57
12757;BME280;31601;48.042;12.240;2023-04-25T07:51:20;95523.28;;;10.75;58.69
12757;BME280;31601;48.042;12.240;2023-04-25T07:53:48;95527.34;;;10.71;58.16
12757;BME280;31601;48.042;12.240;2023-04-25T07:56:15;95535.13;;;10.31;57.40
12757;BME280;31601;48.042;12.240;2023-04-25T07:58:41;95540.25;;;9.84;59.03
12757;BME280;31601;48.042;12.240;2023-04-25T08:01:07;95535.63;;;9.86;58.95
12757;BME280;31601;48.042;12.240;2023-04-25T08:03:34;95537.41;;;9.79;59.51
12757;BME280;31601;48.042;12.240;2023-04-25T08:06:00;95531.09;;;9.60;59.67
12757;BME280;31601;48.042;12.240;2023-04-25T08:08:27;95547.28;;;9.42;59.51
12757;BME280;31601;48.042;12.240;2023-04-25T08:10:55;95543.34;;;10.08;58.58
12757;BME280;31601;48.042;12.240;2023-04-25T08:13:21;95546.69;;;9.88;57.76
12757;BME280;31601;48.042;12.240;2023-04-25T08:15:47;95542.75;;;10.06;57.05
12757;BME280;31601;48.042;12.240;2023-04-25T08:18:14;95542.56;;;10.07;57.49
12757;BME280;31601;48.042;12.240;2023-04-25T08:20:40;95536.72;;;10.18;56.05
12757;BME280;31601;48.042;12.240;2023-04-25T08:23:07;95538.41;;;11.00;57.34
12757;BME280;31601;48.042;12.240;2023-04-25T08:25:33;95532.75;;;11.29;55.23
12757;BME280;31601;48.042;12.240;2023-04-25T08:28:01;95536.38;;;12.00;53.43
12757;BME280;31601;48.042;12.240;2023-04-25T08:30:28;95529.63;;;12.43;52.32
12757;BME280;31601;48.042;12.240;2023-04-25T08:32:54;95526.47;;;12.34;51.22
12757;BME280;31601;48.042;12.240;2023-04-25T08:35:21;95522.06;;;12.28;50.84
12757;BME280;31601;48.042;12.240;2023-04-25T08:37:48;95529.94;;;12.60;50.16
12757;BME280;31601;48.042;12.240;2023-04-25T08:40:15;95515.03;;;12.79;51.65
12757;BME280;31601;48.042;12.240;2023-04-25T08:42:42;95523.19;;;12.71;51.30
12757;BME280;31601;48.042;12.240;2023-04-25T08:45:10;95513.94;;;12.87;50.56
12757;BME280;31601;48.042;12.240;2023-04-25T08:47:38;95515.47;;;13.20;50.22
12757;BME280;31601;48.042;12.240;2023-04-25T08:50:05;95519.53;;;12.97;49.92
12757;BME280;31601;48.042;12.240;2023-04-25T08:52:36;95514.00;;;13.49;49.64
12757;BME280;31601;48.042;12.240;2023-04-25T08:55:03;95519.97;;;13.13;51.62
12757;BME280;31601;48.042;12.240;2023-04-25T08:57:31;95524.06;;;13.34;49.96
12757;BME280;31601;48.042;12.240;2023-04-25T08:59:58;95524.38;;;14.11;48.68
12757;BME280;31601;48.042;12.240;2023-04-25T09:02:26;95525.63;;;14.70;48.24
12757;BME280;31601;48.042;12.240;2023-04-25T09:04:53;95518.91;;;14.97;46.57
12757;BME280;31601;48.042;12.240;2023-04-25T09:07:21;95516.03;;;15.22;46.59
12757;BME280;31601;48.042;12.240;2023-04-25T09:09:47;95512.13;;;15.13;45.07
12757;BME280;31601;48.042;12.240;2023-04-25T09:12:14;95515.56;;;15.37;45.12
12757;BME280;31601;48.042;12.240;2023-04-25T09:14:40;95505.69;;;14.74;44.12
12757;BME280;31601;48.042;12.240;2023-04-25T09:17:07;95507.59;;;14.24;47.83
12757;BME280;31601;48.042;12.240;2023-04-25T09:19:36;95511.03;;;13.76;47.61
12757;BME280;31601;48.042;12.240;2023-04-25T09:22:05;95504.72;;;14.26;46.69
12757;BME280;31601;48.042;12.240;2023-04-25T09:24:33;95503.97;;;13.76;45.25
12757;BME280;31601;48.042;12.240;2023-04-25T09:27:03;95506.31;;;14.15;44.87
12757;BME280;31601;48.042;12.240;2023-04-25T09:29:30;95505.06;;;13.99;45.15
12757;BME280;31601;48.042;12.240;2023-04-25T09:32:17;95503.00;;;13.71;45.12
12757;BME280;31601;48.042;12.240;2023-04-25T09:34:47;95496.59;;;14.39;47.39
12757;BME280;31601;48.042;12.240;2023-04-25T09:37:18;95508.56;;;13.81;45.47
12757;BME280;31601;48.042;12.240;2023-04-25T09:39:45;95501.88;;;14.39;44.11
12757;BME280;31601;48.042;12.240;2023-04-25T09:42:13;95500.13;;;13.91;45.75
12757;BME280;31601;48.042;12.240;2023-04-25T09:44:42;95502.09;;;14.38;45.32
12757;BME280;31601;48.042;12.240;2023-04-25T09:47:10;95506.84;;;14.47;44.26
12757;BME280;31601;48.042;12.240;2023-04-25T09:49:39;95512.13;;;13.87;46.21
12757;BME280;31601;48.042;12.240;2023-04-25T09:52:09;95514.09;;;13.91;44.89
12757;BME280;31601;48.042;12.240;2023-04-25T09:54:36;95516.91;;;14.08;45.45
12757;BME280;31601;48.042;12.240;2023-04-25T09:57:10;95517.50;;;13.80;46.41
12757;BME280;31601;48.042;12.240;2023-04-25T09:59:39;95521.53;;;13.83;44.53
12757;BME280;31601;48.042;12.240;2023-04-25T10:02:09;95516.56;;;14.05;45.45
12757;BME280;31601;48.042;12.240;2023-04-25T10:04:37;95522.59;;;14.24;45.63
12757;BME280;31601;48.042;12.240;2023-04-25T10:07:06;95509.34;;;14.42;45.06
12757;BME280;31601;48.042;12.240;2023-04-25T10:09:36;95513.81;;;14.84;43.47
12757;BME280;31601;48.042;12.240;2023-04-25T10:12:05;95510.00;;;14.26;43.82
12757;BME280;31601;48.042;12.240;2023-04-25T10:14:32;95516.97;;;14.20;45.42
12757;BME280;31601;48.042;12.240;2023-04-25T10:16:59;95516.56;;;14.77;44.20
12757;BME280;31601;48.042;12.240;2023-04-25T10:19:27;95513.84;;;14.96;44.46
12757;BME280;31601;48.042;12.240;2023-04-25T10:22:01;95517.81;;;14.75;47.37
12757;BME280;31601;48.042;12.240;2023-04-25T10:24:29;95523.44;;;14.24;47.20
12757;BME280;31601;48.042;12.240;2023-04-25T10:26:57;95522.66;;;14.05;47.96
12757;BME280;31601;48.042;12.240;2023-04-25T10:29:25;95523.41;;;13.94;47.50
12757;BME280;31601;48.042;12.240;2023-04-25T10:31:51;95518.16;;;13.57;46.42
12757;BME280;31601;48.042;12.240;2023-04-25T10:34:18;95507.03;;;14.04;45.99
12757;BME280;31601;48.042;12.240;2023-04-25T10:36:49;95500.94;;;14.22;45.85
12757;BME280;31601;48.042;12.240;2023-04-25T10:39:22;95502.59;;;14.04;45.14
12757;BME280;31601;48.042;12.240;2023-04-25T10:41:52;95498.91;;;14.36;44.58
12757;BME280;31601;48.042;12.240;2023-04-25T10:44:21;95498.00;;;14.96;46.42
12757;BME280;31601;48.042;12.240;2023-04-25T10:46:47;95498.91;;;15.37;44.40
12757;BME280;31601;48.042;12.240;2023-04-25T10:49:29;95495.84;;;15.81;43.08
12757;BME280;31601;48.042;12.240;2023-04-25T10:52:24;95500.25;;;15.51;44.40
12757;BME280;31601;48.042;12.240;2023-04-25T10:54:52;95489.78;;;15.97;43.99
12757;BME280;31601;48.042;12.240;2023-04-25T10:57:30;95494.56;;;15.83;42.41
12757;BME280;31601;48.042;12.240;2023-04-25T11:00:05;95494.16;;;16.32;43.06
12757;BME280;31601;48.042;12.240;2023-04-25T11:02:37;95474.50;;;16.45;42.12
12757;BME280;31601;48.042;12.240;2023-04-25T11:05:04;95473.88;;;16.72;41.68
12757;BME280;31601;48.042;12.240;2023-04-25T11:07:34;95472.84;;;17.07;41.92
12757;BME280;31601;48.042;12.240;2023-04-25T11:10:04;95464.97;;;17.12;40.73
12757;BME280;31601;48.042;12.240;2023-04-25T11:12:31;95464.28;;;17.83;40.50
12757;BME280;31601;48.042;12.240;2023-04-25T11:14:59;95465.72;;;18.18;39.29
12757;BME280;31601;48.042;12.240;2023-04-25T11:17:27;95460.50;;;18.28;39.67
12757;BME280;31601;48.042;12.240;2023-04-25T11:19:54;95467.88;;;18.21;39.43
12757;BME280;31601;48.042;12.240;2023-04-25T11:22:22;95463.56;;;18.15;38.04
12757;BME280;31601;48.042;12.240;2023-04-25T11:24:48;95467.53;;;17.90;38.44
12757;BME280;31601;48.042;12.240;2023-04-25T11:27:15;95471.56;;;17.93;37.98
12757;BME280;31601;48.042;12.240;2023-04-25T11:29:42;95468.53;;;18.06;38.85
12757;BME280;31601;48.042;12.240;2023-04-25T11:32:08;95468.53;;;18.06;38.98
12757;BME280;31601;48.042;12.240;2023-04-25T11:34:36;95463.28;;;18.38;38.58
12757;BME280;31601;48.042;12.240;2023-04-25T11:37:03;95460.38;;;18.72;37.86
12757;BME280;31601;48.042;12.240;2023-04-25T11:39:31;95457.28;;;18.86;37.70
12757;BME280;31601;48.042;12.240;2023-04-25T11:41:57;95468.94;;;19.17;36.89
12757;BME280;31601;48.042;12.240;2023-04-25T11:44:24;95462.09;;;19.31;36.05
12757;BME280;31601;48.042;12.240;2023-04-25T11:46:50;95465.78;;;19.25;36.64
12757;BME280;31601;48.042;12.240;2023-04-25T11:49:16;95474.94;;;19.02;36.90
12757;BME280;31601;48.042;12.240;2023-04-25T11:51:45;95470.91;;;18.62;36.79
12757;BME280;31601;48.042;12.240;2023-04-25T11:54:13;95500.91;;;17.42;38.95
12757;BME280;31601;48.042;12.240;2023-04-25T11:56:41;95532.84;;;14.32;42.20
12757;BME280;31601;48.042;12.240;2023-04-25T11:59:07;95539.88;;;12.83;46.60
12757;BME280;31601;48.042;12.240;2023-04-25T12:01:36;95568.38;;;11.77;50.11
12757;BME280;31601;48.042;12.240;2023-04-25T12:04:12;95569.72;;;10.68;53.65
12757;BME280;31601;48.042;12.240;2023-04-25T12:06:40;95582.22;;;10.66;56.39
12757;BME280;31601;48.042;12.240;2023-04-25T12:09:10;95588.53;;;10.16;58.27
12757;BME280;31601;48.042;12.240;2023-04-25T12:11:42;95595.09;;;10.41;60.05
12757;BME280;31601;48.042;12.240;2023-04-25T12:14:09;95598.66;;;10.26;62.28
12757;BME280;31601;48.042;12.240;2023-04-25T12:16:43;95589.56;;;9.74;64.66
12757;BME280;31601;48.042;12.240;2023-04-25T12:19:09;95602.84;;;9.37;65.72
12757;BME280;31601;48.042;12.240;2023-04-25T12:21:36;95595.31;;;9.21;66.57
12757;BME280;31601;48.042;12.240;2023-04-25T12:24:12;95601.94;;;9.52;67.40
12757;BME280;31601;48.042;12.240;2023-04-25T12:26:49;95607.09;;;9.38;66.26
12757;BME280;31601;48.042;12.240;2023-04-25T12:29:17;95615.44;;;9.48;67.22
12757;BME280;31601;48.042;12.240;2023-04-25T12:31:44;95621.53;;;9.27;67.38
12757;BME280;31601;48.042;12.240;2023-04-25T12:34:11;95619.66;;;9.21;69.25
12757;BME280;31601;48.042;12.240;2023-04-25T12:36:37;95627.84;;;9.40;69.50
12757;BME280;31601;48.042;12.240;2023-04-25T12:39:04;95630.28;;;9.13;70.11
12757;BME280;31601;48.042;12.240;2023-04-25T12:41:33;95626.78;;;9.34;69.71
12757;BME280;31601;48.042;12.240;2023-04-25T12:43:59;95632.41;;;9.03;70.36
12757;BME280;31601;48.042;12.240;2023-04-25T12:46:26;95628.13;;;9.52;70.34
12757;BME280;31601;48.042;12.240;2023-04-25T12:48:52;95626.06;;;10.24;69.42
12757;BME280;31601;48.042;12.240;2023-04-25T12:51:19;95627.41;;;10.61;68.61
12757;BME280;31601;48.042;12.240;2023-04-25T12:53:45;95627.88;;;11.18;68.45
12757;BME280;31601;48.042;12.240;2023-04-25T12:56:12;95629.66;;;11.71;67.23
12757;BME280;31601;48.042;12.240;2023-04-25T12:58:40;95632.22;;;11.85;66.11